createdAt,value
2023-03-04T00:00:23.120Z,51.79
2023-03-04T00:01:21.905Z,50.29
2023-03-04T00:02:21.775Z,47.90
2023-03-04T00:03:21.757Z,47.59
2023-03-04T00:04:22.112Z,48.29
2023-03-04T00:05:21.888Z,46.90
2023-03-04T00:06:21.612Z,51
2023-03-04T00:07:21.697Z,48.09
2023-03-04T00:08:21.584Z,48.90
2023-03-04T00:09:21.725Z,49.20
2023-03-04T00:10:21.851Z,48.79
2023-03-04T00:11:21.420Z,44.70
2023-03-04T00:12:21.774Z,44.59
2023-03-04T00:13:21.449Z,48.20
2023-03-04T00:14:21.665Z,44.59
2023-03-04T00:15:22.573Z,43.90
2023-03-04T00:16:21.354Z,44.40
2023-03-04T00:17:22.182Z,43.09
2023-03-04T00:18:21.310Z,43.20
2023-03-04T00:19:21.592Z,44.20
2023-03-04T00:20:21.815Z,42.70
2023-03-04T00:21:21.710Z,43
2023-03-04T00:22:22.145Z,45
2023-03-04T00:23:21.913Z,42.5
2023-03-04T00:24:21.667Z,42.70
2023-03-04T00:25:21.715Z,42.79
2023-03-04T00:26:22.059Z,45.20
2023-03-04T00:27:21.419Z,44.5
2023-03-04T00:28:21.532Z,44.40
2023-03-04T00:29:21.635Z,43.40
2023-03-04T00:30:22.025Z,46.09
2023-03-04T00:31:21.187Z,42.40
2023-03-04T00:32:21.894Z,43.40
2023-03-04T00:33:21.177Z,44.5
2023-03-04T00:34:22.263Z,43.70
2023-03-04T00:35:21.556Z,42.70
2023-03-04T00:37:21.692Z,41.20
2023-03-04T00:38:21.804Z,42
2023-03-04T00:39:21.984Z,41.40
2023-03-04T00:40:22.079Z,44
2023-03-04T00:41:21.505Z,41.79
2023-03-04T00:42:21.974Z,39.09
2023-03-04T00:43:21.410Z,42.90
2023-03-04T00:44:21.762Z,39.79
2023-03-04T00:45:22.109Z,38.79
2023-03-04T00:46:22.126Z,37.29
2023-03-04T00:47:21.453Z,39.40
2023-03-04T00:48:21.624Z,37.29
2023-03-04T00:49:21.530Z,38.09
2023-03-04T00:50:22.194Z,37.29
2023-03-04T00:51:21.709Z,40.5
2023-03-04T00:52:22.297Z,37.29
2023-03-04T00:53:21.801Z,37.59
2023-03-04T00:54:21.553Z,38.40
2023-03-04T00:55:21.926Z,39.59
2023-03-04T00:56:21.357Z,40.59
2023-03-04T00:57:21.079Z,37
2023-03-04T00:58:21.513Z,37.20
2023-03-04T00:59:21.736Z,39.59
2023-03-04T01:00:23.386Z,34.59
2023-03-04T01:01:24.654Z,36
2023-03-04T01:02:21.743Z,36.29
2023-03-04T01:03:22.558Z,37.70
2023-03-04T01:04:21.875Z,35.79
2023-03-04T01:05:22.518Z,35.20
2023-03-04T01:06:22.386Z,36.09
2023-03-04T01:07:21.865Z,36.70
2023-03-04T01:08:21.983Z,35.79
2023-03-04T01:09:21.160Z,33.20
2023-03-04T01:10:22.415Z,35
2023-03-04T01:11:21.557Z,35.20
2023-03-04T01:12:21.896Z,38.59
2023-03-04T01:13:22.016Z,35.20
2023-03-04T01:14:21.625Z,34.59
2023-03-04T01:15:22.131Z,34.79
2023-03-04T01:16:21.427Z,33.70
2023-03-04T01:17:21.243Z,33.40
2023-03-04T01:18:21.065Z,33.09
2023-03-04T01:19:21.582Z,33.5
2023-03-04T01:20:22.114Z,34.29
2023-03-04T01:21:21.443Z,35
2023-03-04T01:22:21.423Z,32.79
2023-03-04T01:23:20.986Z,34.40
2023-03-04T01:24:21.406Z,33.5
2023-03-04T01:25:21.569Z,31.89
2023-03-04T01:26:21.698Z,35.5
2023-03-04T01:27:22.108Z,32.20
2023-03-04T01:28:21.385Z,33.09
2023-03-04T01:29:21.825Z,33.29
2023-03-04T01:30:22.298Z,35.29
2023-03-04T01:31:21.425Z,34.59
2023-03-04T01:32:21.389Z,39.59
2023-03-04T01:33:21.841Z,36.79
2023-03-04T01:34:21.284Z,33.70
2023-03-04T01:35:22.525Z,34.29
2023-03-04T01:36:21.913Z,35
2023-03-04T01:38:21.062Z,36.40
2023-03-04T01:39:21.820Z,37
2023-03-04T01:40:22.946Z,34.70
2023-03-04T01:41:21.373Z,32.70
2023-03-04T01:42:21.581Z,35.29
2023-03-04T01:43:21.804Z,36.5
2023-03-04T01:44:21.932Z,37
2023-03-04T01:45:21.670Z,36
2023-03-04T01:46:21.687Z,37.40
2023-03-04T01:47:21.601Z,32.5
2023-03-04T01:48:21.152Z,34.29
2023-03-04T01:49:21.882Z,35.20
2023-03-04T01:50:21.734Z,35.40
2023-03-04T01:51:21.442Z,38.79
2023-03-04T01:52:21.396Z,37.29
2023-03-04T01:53:21.847Z,34.79
2023-03-04T01:54:21.510Z,33.5
2023-03-04T01:55:22.397Z,35
2023-03-04T01:56:22.028Z,34.09
2023-03-04T01:57:21.281Z,36.20
2023-03-04T01:59:21.368Z,35.29
2023-03-04T02:00:22.308Z,34.59
2023-03-04T02:01:22.188Z,33.70
2023-03-04T02:02:22.020Z,34.79
2023-03-04T02:03:22.745Z,34.20
2023-03-04T02:04:21.647Z,35.29
2023-03-04T02:05:22.445Z,35
2023-03-04T02:06:21.934Z,37
2023-03-04T02:07:22.356Z,36.59
2023-03-04T02:08:22.226Z,35.79
2023-03-04T02:09:21.597Z,35.09
2023-03-04T02:10:22.721Z,37.09
2023-03-04T02:11:22.082Z,38.90
2023-03-04T02:12:21.907Z,35.90
2023-03-04T02:13:22.273Z,33.79
2023-03-04T02:14:21.750Z,37.79
2023-03-04T02:15:21.807Z,38
2023-03-04T02:16:21.784Z,36
2023-03-04T02:17:21.521Z,36.59
2023-03-04T02:18:21.660Z,35.59
2023-03-04T02:19:22.495Z,36
2023-03-04T02:20:22.435Z,36.09
2023-03-04T02:21:22.229Z,37
2023-03-04T02:22:21.876Z,36.40
2023-03-04T02:23:21.881Z,35.20
2023-03-04T02:24:21.967Z,37.79
2023-03-04T02:25:26.859Z,35.79
2023-03-04T02:26:21.946Z,34.09
2023-03-04T02:27:22.282Z,39.70
2023-03-04T02:28:21.844Z,35.70
2023-03-04T02:29:30.047Z,37.09
2023-03-04T02:30:21.798Z,37
2023-03-04T02:32:21.934Z,35.40
2023-03-04T02:33:21.586Z,37.09
2023-03-04T02:34:21.815Z,34.79
2023-03-04T02:35:22.242Z,34
2023-03-04T02:37:21.169Z,31.20
2023-03-04T02:38:21.774Z,34.09
2023-03-04T02:40:22.187Z,31.39
2023-03-04T02:41:21.448Z,32.79
2023-03-04T02:42:21.417Z,32.5
2023-03-04T02:43:21.590Z,31.60
2023-03-04T02:44:21.885Z,30.79
2023-03-04T02:45:22.292Z,33.79
2023-03-04T02:46:21.226Z,31.29
2023-03-04T02:47:21.712Z,32.90
2023-03-04T02:48:21.475Z,29.79
2023-03-04T02:49:21.269Z,29.39
2023-03-04T02:50:21.985Z,29.5
2023-03-04T02:51:21.233Z,28.10
2023-03-04T02:52:21.424Z,30.29
2023-03-04T02:53:21.296Z,27.79
2023-03-04T02:54:21.290Z,28.60
2023-03-04T02:55:21.507Z,28.89
2023-03-04T02:56:21.948Z,28.29
2023-03-04T02:57:21.668Z,30.79
2023-03-04T02:58:22.636Z,29.29
2023-03-04T02:59:22.303Z,30.20
2023-03-04T03:00:23.162Z,27.5
2023-03-04T03:01:21.868Z,28.79
2023-03-04T03:02:21.769Z,28.89
2023-03-04T03:03:21.873Z,29.89
2023-03-04T03:04:21.216Z,28
2023-03-04T03:05:22.328Z,30.70
2023-03-04T03:06:21.676Z,28.89
2023-03-04T03:07:21.994Z,29.79
2023-03-04T03:08:20.968Z,26.60
2023-03-04T03:09:21.018Z,27
2023-03-04T03:10:21.871Z,27.10
2023-03-04T03:11:21.939Z,24.79
2023-03-04T03:12:20.915Z,26.39
2023-03-04T03:13:21.931Z,25
2023-03-04T03:14:21.225Z,23.20
2023-03-04T03:15:22.667Z,26.79
2023-03-04T03:16:21.943Z,26.60
2023-03-04T03:17:21.496Z,24.20
2023-03-04T03:18:21.627Z,28
2023-03-04T03:19:21.840Z,26.5
2023-03-04T03:20:22.154Z,25.10
2023-03-04T03:21:21.159Z,26.5
2023-03-04T03:22:20.891Z,24.79
2023-03-04T03:23:21.751Z,26.29
2023-03-04T03:24:22.157Z,24.60
2023-03-04T03:25:21.997Z,25.10
2023-03-04T03:26:22.949Z,23
2023-03-04T03:27:21.013Z,25.89
2023-03-04T03:28:21.505Z,23.60
2023-03-04T03:29:21.659Z,26.20
2023-03-04T03:30:22.292Z,24
2023-03-04T03:31:21.849Z,23.39
2023-03-04T03:32:21.108Z,27.20
2023-03-04T03:33:21.204Z,25
2023-03-04T03:34:21.574Z,24.89
2023-03-04T03:35:22.065Z,25.29
2023-03-04T03:36:21.376Z,24.29
2023-03-04T03:37:21.317Z,24
2023-03-04T03:38:21.651Z,22
2023-03-04T03:39:21.786Z,22.39
2023-03-04T03:40:22.200Z,22.10
2023-03-04T03:41:21.350Z,23.5
2023-03-04T03:42:21.789Z,23.60
2023-03-04T03:43:22.149Z,21.39
2023-03-04T03:44:21.115Z,19.79
2023-03-04T03:45:22.578Z,21.20
2023-03-04T03:46:21.409Z,22.29
2023-03-04T03:47:21.873Z,21.39
2023-03-04T03:48:21.973Z,23.70
2023-03-04T03:49:21.982Z,20.20
2023-03-04T03:50:21.816Z,21
2023-03-04T03:51:21.822Z,22.39
2023-03-04T03:52:22.057Z,19.10
2023-03-04T03:53:21.208Z,19.29
2023-03-04T03:54:21.278Z,18.29
2023-03-04T03:55:21.973Z,20.39
2023-03-04T03:56:21.039Z,19.39
2023-03-04T03:57:21.863Z,17.5
2023-03-04T03:58:21.304Z,19.79
2023-03-04T03:59:21.127Z,20.5
2023-03-04T04:00:22.686Z,17.70
2023-03-04T04:01:21.795Z,19.20
2023-03-04T04:02:21.900Z,19.70
2023-03-04T04:03:21.704Z,18.10
2023-03-04T04:04:21.909Z,16.70
2023-03-04T04:05:22.516Z,19.70
2023-03-04T04:06:20.910Z,17
2023-03-04T04:07:21.991Z,18.79
2023-03-04T04:08:21.870Z,19.10
2023-03-04T04:09:21.910Z,19.5
2023-03-04T04:10:22.222Z,19.20
2023-03-04T04:11:21.530Z,16.60
2023-03-04T04:12:21.836Z,19.60
2023-03-04T04:13:21.904Z,18
2023-03-04T04:14:21.665Z,19.60
2023-03-04T04:15:21.873Z,17.29
2023-03-04T04:16:22.504Z,19.29
2023-03-04T04:17:22.168Z,19.79
2023-03-04T04:18:21.466Z,21
2023-03-04T04:19:21.930Z,20.79
2023-03-04T04:20:21.661Z,16.79
2023-03-04T04:21:21.377Z,17.70
2023-03-04T04:22:21.624Z,16.89
2023-03-04T04:23:21.155Z,16.79
2023-03-04T04:24:21.704Z,17.5
2023-03-04T04:25:22.140Z,16.20
2023-03-04T04:26:21.864Z,15.39
2023-03-04T04:27:21.741Z,16.5
2023-03-04T04:28:21.730Z,16.20
2023-03-04T04:29:21.466Z,16.10
2023-03-04T04:30:22.042Z,17.10
2023-03-04T04:31:21.097Z,15.89
2023-03-04T04:32:21.762Z,17.29
2023-03-04T04:33:21.761Z,16.20
2023-03-04T04:34:21.921Z,16.89
2023-03-04T04:35:21.652Z,17.29
2023-03-04T04:36:22.322Z,17.39
2023-03-04T04:37:21.805Z,17.5
2023-03-04T04:38:22.100Z,18.89
2023-03-04T04:39:22.173Z,18.29
2023-03-04T04:40:22.479Z,15.89
2023-03-04T04:41:21.597Z,17.10
2023-03-04T04:42:21.348Z,15.30
2023-03-04T04:43:21.395Z,18.79
2023-03-04T04:44:21.562Z,16.10
2023-03-04T04:45:21.602Z,15.30
2023-03-04T04:46:21.730Z,16.20
2023-03-04T04:47:21.359Z,16.10
2023-03-04T04:48:21.262Z,16.70
2023-03-04T04:49:21.728Z,19.5
2023-03-04T04:50:21.981Z,15.10
2023-03-04T04:51:21.584Z,18.20
2023-03-04T04:52:21.619Z,15.69
2023-03-04T04:53:21.083Z,14.5
2023-03-04T04:54:21.369Z,13.89
2023-03-04T04:55:21.570Z,15.69
2023-03-04T04:56:21.586Z,12.80
2023-03-04T04:57:21.525Z,15.80
2023-03-04T04:58:21.387Z,15.89
2023-03-04T04:59:21.546Z,16.60
2023-03-04T05:00:22.781Z,16.10
2023-03-04T05:01:22.065Z,15.30
2023-03-04T05:02:22.239Z,14.89
2023-03-04T05:03:23.161Z,15.5
2023-03-04T05:04:21.811Z,14
2023-03-04T05:05:22.402Z,13.39
2023-03-04T05:06:22.044Z,13.60
2023-03-04T05:07:21.895Z,15.30
2023-03-04T05:08:21.745Z,17.20
2023-03-04T05:09:21.672Z,13.89
2023-03-04T05:10:22.294Z,15.10
2023-03-04T05:11:21.955Z,18.10
2023-03-04T05:12:21.322Z,16
2023-03-04T05:13:22.039Z,13.80
2023-03-04T05:14:20.954Z,17.20
2023-03-04T05:15:21.761Z,16.89
2023-03-04T05:16:21.779Z,15.30
2023-03-04T05:17:21.661Z,17.79
2023-03-04T05:18:21.570Z,14.39
2023-03-04T05:19:22.037Z,18.39
2023-03-04T05:20:22.072Z,16.79
2023-03-04T05:21:22.121Z,15.69
2023-03-04T05:22:22.387Z,15.10
2023-03-04T05:23:21.984Z,14.19
2023-03-04T05:24:21.997Z,16.89
2023-03-04T05:25:22.759Z,19.89
2023-03-04T05:26:21.857Z,17.29
2023-03-04T05:27:22.034Z,17.20
2023-03-04T05:28:21.711Z,18.10
2023-03-04T05:29:21.641Z,18.20
2023-03-04T05:30:21.794Z,17.29
2023-03-04T05:31:21.935Z,16.70
2023-03-04T05:32:21.432Z,16.60
2023-03-04T05:33:22.171Z,17.60
2023-03-04T05:34:21.578Z,19.10
2023-03-04T05:35:22.434Z,18.89
2023-03-04T05:36:21.631Z,19
2023-03-04T05:37:21.746Z,18.20
2023-03-04T05:38:21.934Z,21
2023-03-04T05:39:22.038Z,20.29
2023-03-04T05:40:22.405Z,18.60
2023-03-04T05:41:21.676Z,16.89
2023-03-04T05:42:22.136Z,19.10
2023-03-04T05:43:22.302Z,16.79
2023-03-04T05:44:21.498Z,17.60
2023-03-04T05:45:21.928Z,16.39
2023-03-04T05:46:21.489Z,22.70
2023-03-04T05:47:21.102Z,19.20
2023-03-04T05:48:21.599Z,15.89
2023-03-04T05:49:21.388Z,20.20
2023-03-04T05:50:21.604Z,19.20
2023-03-04T05:51:21.624Z,21.60
2023-03-04T05:52:22.430Z,15.60
2023-03-04T05:53:21.256Z,15.80
2023-03-04T05:54:21.793Z,19.70
2023-03-04T05:55:22.292Z,21.10
2023-03-04T05:56:21.445Z,17.20
2023-03-04T05:57:21.749Z,18
2023-03-04T05:59:21.311Z,19.5
2023-03-04T06:00:22.500Z,16.89
2023-03-04T06:01:22.284Z,17.39
2023-03-04T06:02:21.654Z,20
2023-03-04T06:03:21.869Z,17.89
2023-03-04T06:04:22.261Z,18.29
2023-03-04T06:05:21.621Z,17.79
2023-03-04T06:06:21.993Z,18.10
2023-03-04T06:07:21.403Z,17.5
2023-03-04T06:08:21.745Z,18.29
2023-03-04T06:09:21.397Z,23.20
2023-03-04T06:10:21.620Z,15.89
2023-03-04T06:11:21.946Z,18.29
2023-03-04T06:13:22.547Z,17.79
2023-03-04T06:14:21.851Z,16.29
2023-03-04T06:15:22.269Z,17.89
2023-03-04T06:16:22.345Z,15.60
2023-03-04T06:17:21.761Z,18.39
2023-03-04T06:18:21.929Z,18
2023-03-04T06:19:21.501Z,18.5
2023-03-04T06:20:22.003Z,22.39
2023-03-04T06:21:22.462Z,17.89
2023-03-04T06:22:22.653Z,19.39
2023-03-04T06:23:21.993Z,18.10
2023-03-04T06:24:22.114Z,18.39
2023-03-04T06:25:22.240Z,16.10
2023-03-04T06:26:21.556Z,21.10
2023-03-04T06:27:22.572Z,18.60
2023-03-04T06:28:21.888Z,18.5
2023-03-04T06:29:21.756Z,19.20
2023-03-04T06:30:22.063Z,20.39
2023-03-04T06:31:21.365Z,17.10
2023-03-04T06:32:21.295Z,17.5
2023-03-04T06:33:22.161Z,17.10
2023-03-04T06:34:21.667Z,16.20
2023-03-04T06:35:22.079Z,19
2023-03-04T06:36:21.827Z,17.20
2023-03-04T06:37:21.523Z,16.5
2023-03-04T06:38:21.578Z,14.5
2023-03-04T06:39:22.220Z,17.79
2023-03-04T06:40:21.121Z,17.60
2023-03-04T06:41:21.617Z,15.10
2023-03-04T06:42:21.588Z,14.89
2023-03-04T06:43:22.370Z,16.20
2023-03-04T06:44:21.916Z,16.10
2023-03-04T06:45:22.848Z,15.19
2023-03-04T06:46:21.700Z,15.69
2023-03-04T06:47:21.896Z,16.79
2023-03-04T06:48:21.410Z,16.29
2023-03-04T06:49:21.899Z,17.20
2023-03-04T06:50:21.532Z,16.29
2023-03-04T06:51:21.715Z,19.60
2023-03-04T06:52:22.111Z,14.5
2023-03-04T06:53:21.916Z,15.69
2023-03-04T06:54:21.905Z,16.10
2023-03-04T06:55:21.811Z,16.70
2023-03-04T06:56:21.823Z,16.79
2023-03-04T06:57:22.100Z,15.89
2023-03-04T06:58:21.958Z,14.89
2023-03-04T06:59:21.591Z,18.79
2023-03-04T07:00:23.747Z,16.89
2023-03-04T07:01:23.398Z,14.10
2023-03-04T07:02:22.446Z,18.20
2023-03-04T07:03:22.173Z,16
2023-03-04T07:04:21.680Z,15.10
2023-03-04T07:05:22.668Z,17.70
2023-03-04T07:06:22.543Z,18.60
2023-03-04T07:07:21.981Z,16.79
2023-03-04T07:08:22.156Z,17.5
2023-03-04T07:09:26.367Z,18.5
2023-03-04T07:10:22.318Z,15.80
2023-03-04T07:11:21.170Z,18.10
2023-03-04T07:12:21.998Z,15.39
2023-03-04T07:13:21.499Z,16.10
2023-03-04T07:14:24.110Z,14.80
2023-03-04T07:15:22.045Z,15.89
2023-03-04T07:16:21.952Z,18.29
2023-03-04T07:17:29.766Z,16.79
2023-03-04T07:18:22.322Z,13.69
2023-03-04T07:19:22.098Z,15.19
2023-03-04T07:20:22.167Z,15.60
2023-03-04T07:21:22.496Z,14.10
2023-03-04T07:22:22.479Z,16.39
2023-03-04T07:23:22.324Z,15.10
2023-03-04T07:24:21.894Z,15
2023-03-04T07:25:22.084Z,14.69
2023-03-04T07:26:21.819Z,16.39
2023-03-04T07:27:22.326Z,16
2023-03-04T07:28:21.968Z,13.89
2023-03-04T07:29:22.330Z,14.39
2023-03-04T07:30:22.519Z,16
2023-03-04T07:31:22.065Z,16.29
2023-03-04T07:32:22.293Z,14.10
2023-03-04T07:33:21.243Z,18.20
2023-03-04T07:34:22.288Z,15.60
2023-03-04T07:35:36.191Z,13.39
2023-03-04T07:36:21.431Z,15.39
2023-03-04T07:37:22.319Z,14.10
2023-03-04T07:38:21.769Z,15.69
2023-03-04T07:39:22.164Z,12.30
2023-03-04T07:40:21.446Z,14.10
2023-03-04T07:41:22.344Z,12.60
2023-03-04T07:42:21.818Z,14
2023-03-04T07:43:22.246Z,16.10
2023-03-04T07:44:21.927Z,14.10
2023-03-04T07:45:22.374Z,15.80
2023-03-04T07:46:21.716Z,16.5
2023-03-04T07:47:21.476Z,13.19
2023-03-04T07:48:21.639Z,16.20
2023-03-04T07:49:21.181Z,13.80
2023-03-04T07:50:22.091Z,16.29
2023-03-04T07:51:22.104Z,18.20
2023-03-04T07:52:21.631Z,15.10
2023-03-04T07:53:21.368Z,13.80
2023-03-04T07:54:21.839Z,16.39
2023-03-04T07:55:22.556Z,12.10
2023-03-04T07:56:22.297Z,14.80
2023-03-04T07:57:21.975Z,13.10
2023-03-04T07:58:21.454Z,12.80
2023-03-04T07:59:22.097Z,16
2023-03-04T08:00:23.337Z,13.89
2023-03-04T08:01:21.769Z,13.80
2023-03-04T08:02:21.942Z,13.19
2023-03-04T08:03:21.567Z,16.60
2023-03-04T08:04:22.268Z,13.39
2023-03-04T08:05:22.119Z,15.39
2023-03-04T08:06:21.307Z,12.60
2023-03-04T08:07:22.043Z,14.19
2023-03-04T08:08:21.657Z,14
2023-03-04T08:09:22.310Z,14.60
2023-03-04T08:10:22.027Z,17.5
2023-03-04T08:11:22.190Z,12.80
2023-03-04T08:12:21.567Z,19
2023-03-04T08:13:23.843Z,14.39
2023-03-04T08:14:22.305Z,15
2023-03-04T08:15:22.864Z,13.89
2023-03-04T08:16:21.391Z,14.30
2023-03-04T08:17:22.565Z,12.10
2023-03-04T08:18:21.555Z,15
2023-03-04T08:19:23.603Z,12.30
2023-03-04T08:20:21.669Z,15.39
2023-03-04T08:21:21.767Z,12.69
2023-03-04T08:22:22.227Z,14.60
2023-03-04T08:23:21.772Z,13.39
2023-03-04T08:24:21.551Z,13.19
2023-03-04T08:25:21.671Z,12.19
2023-03-04T08:26:21.272Z,12.69
2023-03-04T08:27:22.208Z,12.39
2023-03-04T08:28:21.723Z,11.5
2023-03-04T08:29:22.128Z,11.89
2023-03-04T08:30:22.525Z,13.10
2023-03-04T08:31:21.288Z,13.60
2023-03-04T08:32:22.486Z,16.20
2023-03-04T08:33:21.906Z,15.89
2023-03-04T08:34:22.031Z,13.60
2023-03-04T08:35:21.878Z,14.19
2023-03-04T08:36:20.915Z,12.19
2023-03-04T08:37:21.453Z,14.60
2023-03-04T08:38:22.213Z,11.5
2023-03-04T08:39:21.637Z,14.10
2023-03-04T08:40:22.946Z,11.30
2023-03-04T08:41:22.222Z,11.89
2023-03-04T08:42:21.934Z,12.5
2023-03-04T08:43:21.428Z,13.19
2023-03-04T08:44:21.640Z,11.39
2023-03-04T08:45:21.954Z,10.89
2023-03-04T08:46:22.064Z,11.39
2023-03-04T08:47:21.968Z,10.60
2023-03-04T08:48:22.557Z,11.10
2023-03-04T08:49:21.206Z,10.60
2023-03-04T08:50:22.461Z,14.5
2023-03-04T08:51:21.941Z,14.60
2023-03-04T08:52:21.813Z,11.30
2023-03-04T08:53:21.498Z,12.5
2023-03-04T08:54:22.023Z,10.80
2023-03-04T08:55:22.017Z,9.699
2023-03-04T08:56:21.853Z,12.10
2023-03-04T08:57:22.399Z,17.29
2023-03-04T08:58:21.622Z,10.60
2023-03-04T08:59:21.412Z,13
2023-03-04T09:00:23.067Z,10.5
2023-03-04T09:02:23.414Z,13.69
2023-03-04T09:04:23.609Z,10.89
2023-03-04T09:05:22.238Z,12
2023-03-04T09:06:22.295Z,11.5
2023-03-04T09:07:22.329Z,8.600
2023-03-04T09:08:21.789Z,12.30
2023-03-04T09:09:22.248Z,10
2023-03-04T09:10:22.688Z,11
2023-03-04T09:11:21.739Z,13
2023-03-04T09:12:21.839Z,10.60
2023-03-04T09:13:21.996Z,9.199
2023-03-04T09:14:21.634Z,9
2023-03-04T09:15:22.421Z,10.69
2023-03-04T09:16:21.875Z,12.39
2023-03-04T09:17:21.736Z,13.19
2023-03-04T09:18:22.475Z,10.10
2023-03-04T09:19:22.476Z,11.89
2023-03-04T09:20:22.963Z,9.800
2023-03-04T09:21:22.697Z,10.10
2023-03-04T09:22:22.370Z,12.60
2023-03-04T09:23:22.189Z,9.800
2023-03-04T09:24:22.181Z,11.5
2023-03-04T09:25:22.364Z,9
2023-03-04T09:26:22.483Z,9.600
2023-03-04T09:27:22.087Z,12.19
2023-03-04T09:28:21.842Z,10.30
2023-03-04T09:29:21.202Z,10.89
2023-03-04T09:30:21.483Z,9.699
2023-03-04T09:31:22.261Z,11
2023-03-04T09:32:22.227Z,9.699
2023-03-04T09:33:22.226Z,8.5
2023-03-04T09:34:22.432Z,8.100
2023-03-04T09:35:21.990Z,8.600
2023-03-04T09:36:21.860Z,9.300
2023-03-04T09:37:22.183Z,9.100
2023-03-04T09:39:21.432Z,9.399
2023-03-04T09:40:21.428Z,9.100
2023-03-04T09:41:21.673Z,8.800
2023-03-04T09:42:27.301Z,9.100
2023-03-04T09:43:22.081Z,8.600
2023-03-04T09:44:22.200Z,8.300
2023-03-04T09:45:22.679Z,9.300
2023-03-04T09:46:22.528Z,7.599
2023-03-04T09:47:21.984Z,10.39
2023-03-04T09:48:29.784Z,11
2023-03-04T09:49:21.947Z,9.199
2023-03-04T09:50:22.422Z,9.300
2023-03-04T09:51:22.315Z,11.80
2023-03-04T09:52:21.819Z,7.5
2023-03-04T09:53:21.699Z,10.19
2023-03-04T09:54:22.146Z,9.300
2023-03-04T09:55:22.039Z,9.399
2023-03-04T09:56:22.012Z,6.800
2023-03-04T09:57:22.734Z,7.800
2023-03-04T09:58:21.845Z,7.099
2023-03-04T09:59:22.144Z,8.399
2023-03-04T10:00:22.996Z,9.100
2023-03-04T10:01:22.085Z,6.699
2023-03-04T10:02:21.690Z,8
2023-03-04T10:03:21.650Z,6.800
2023-03-04T10:04:22.257Z,8.699
2023-03-04T10:05:22.326Z,8.399
2023-03-04T10:06:21.493Z,7.800
2023-03-04T10:08:22.340Z,7.599
2023-03-04T10:09:21.400Z,8.399
2023-03-04T10:10:22.865Z,8.199
2023-03-04T10:11:22.139Z,7.199
2023-03-04T10:12:22.184Z,7.699
2023-03-04T10:13:21.792Z,8.199
2023-03-04T10:14:21.906Z,7.400
2023-03-04T10:15:22.809Z,7.199
2023-03-04T10:16:21.760Z,7.599
2023-03-04T10:17:21.690Z,8.899
2023-03-04T10:18:22.116Z,6.599
2023-03-04T10:19:21.955Z,6.699
2023-03-04T10:20:21.431Z,9.300
2023-03-04T10:21:21.935Z,8.800
2023-03-04T10:23:21.873Z,9
2023-03-04T10:24:21.441Z,8.5
2023-03-04T10:25:22.118Z,7.599
2023-03-04T10:26:22.248Z,8.699
2023-03-04T10:27:22.583Z,8.800
2023-03-04T10:28:21.791Z,7.400
2023-03-04T10:29:21.214Z,10
2023-03-04T10:30:22.676Z,11.10
2023-03-04T10:31:21.577Z,8.699
2023-03-04T10:32:22.332Z,9.899
2023-03-04T10:33:21.398Z,6.400
2023-03-04T10:34:21.956Z,6.300
2023-03-04T10:35:22.248Z,6.900
2023-03-04T10:36:21.985Z,6.800
2023-03-04T10:37:21.367Z,7.800
2023-03-04T10:38:21.697Z,6.400
2023-03-04T10:39:22.896Z,7.900
2023-03-04T10:40:22.260Z,7.800
2023-03-04T10:41:21.702Z,7.599
2023-03-04T10:42:21.712Z,7.900
2023-03-04T10:43:21.737Z,5.900
2023-03-04T10:44:21.479Z,6.300
2023-03-04T10:45:22.862Z,6.5
2023-03-04T10:46:21.178Z,6.400
2023-03-04T10:47:21.813Z,7.599
2023-03-04T10:48:21.759Z,7.300
2023-03-04T10:49:21.916Z,7
2023-03-04T10:52:22.152Z,8.899
2023-03-04T10:53:21.892Z,6.900
2023-03-04T10:54:22.139Z,8.300
2023-03-04T10:55:23.049Z,10.30
2023-03-04T10:56:22.252Z,6.900
2023-03-04T10:59:22.932Z,7.300
2023-03-04T11:00:24.743Z,7
2023-03-04T11:01:23.150Z,7.199
2023-03-04T11:02:22.668Z,8.300
2023-03-04T11:03:22.339Z,8.699
2023-03-04T11:04:22.604Z,7.5
2023-03-04T11:05:22.646Z,8.600
2023-03-04T11:06:22.331Z,7.400
2023-03-04T11:07:22.091Z,9.199
2023-03-04T11:08:22.386Z,7.5
2023-03-04T11:09:21.612Z,7.699
2023-03-04T11:10:22.057Z,7.900
2023-03-04T11:11:22.662Z,8.199
2023-03-04T11:12:22.122Z,7.5
2023-03-04T11:13:21.767Z,8.199
2023-03-04T11:14:22.049Z,11.39
2023-03-04T11:15:21.802Z,7.800
2023-03-04T11:16:22.020Z,5.599
2023-03-04T11:17:22.263Z,6.199
2023-03-04T11:18:22.418Z,8.5
2023-03-04T11:20:22.098Z,7.300
2023-03-04T11:21:21.633Z,7
2023-03-04T11:22:22.001Z,6.400
2023-03-04T11:23:21.807Z,9.600
2023-03-04T11:24:28.628Z,8.399
2023-03-04T11:25:21.887Z,5.400
2023-03-04T11:26:22.282Z,8.5
2023-03-04T11:27:21.882Z,7.800
2023-03-04T11:28:22.005Z,6.699
2023-03-04T11:29:21.802Z,7.900
2023-03-04T11:30:22.609Z,6.699
2023-03-04T11:31:21.842Z,7.400
2023-03-04T11:32:22.274Z,6.800
2023-03-04T11:33:22.494Z,6.599
2023-03-04T11:34:22.031Z,5.900
2023-03-04T11:35:22.403Z,5.300
2023-03-04T11:36:22.085Z,9.899
2023-03-04T11:37:21.710Z,8.199
2023-03-04T11:38:21.851Z,7.400
2023-03-04T11:39:21.670Z,5.900
2023-03-04T11:40:23.684Z,5.800
2023-03-04T11:41:22.273Z,5.400
2023-03-04T11:42:22.034Z,6.5
2023-03-04T11:43:21.854Z,8
2023-03-04T11:44:22.593Z,6.199
2023-03-04T11:46:21.730Z,5.800
2023-03-04T11:47:21.834Z,6.5
2023-03-04T11:48:22.068Z,7.400
2023-03-04T11:49:21.969Z,6.5
2023-03-04T11:50:21.667Z,6.400
2023-03-04T11:51:21.586Z,7.300
2023-03-04T11:52:21.700Z,6.800
2023-03-04T11:53:26.026Z,5.599
2023-03-04T11:54:20.899Z,6
2023-03-04T11:55:22.098Z,7.099
2023-03-04T11:56:22.271Z,4.699
2023-03-04T11:57:22.190Z,7.800
2023-03-04T11:58:21.806Z,6
2023-03-04T11:59:22.418Z,6.300
2023-03-04T12:00:22.751Z,4.5
2023-03-04T12:01:27.403Z,6.900
2023-03-04T12:02:22.660Z,6
2023-03-04T12:03:22.532Z,7.900
2023-03-04T12:04:22.791Z,6.699
2023-03-04T12:05:27.456Z,5.300
2023-03-04T12:06:22.216Z,4.400
2023-03-04T12:07:22.503Z,5.099
2023-03-04T12:08:22.469Z,6.300
2023-03-04T12:09:22.040Z,6.5
2023-03-04T12:10:21.950Z,5.099
2023-03-04T12:11:21.605Z,6.800
2023-03-04T12:12:21.690Z,4.900
2023-03-04T12:13:22.273Z,5.400
2023-03-04T12:14:22.542Z,4.199
2023-03-04T12:15:22.242Z,4.5
2023-03-04T12:16:21.219Z,6.199
2023-03-04T12:17:22.234Z,5
2023-03-04T12:18:21.588Z,3.700
2023-03-04T12:19:21.168Z,4.400
2023-03-04T12:20:22.174Z,4.199
2023-03-04T12:21:22.268Z,4.400
2023-03-04T12:22:21.393Z,4.699
2023-03-04T12:23:21.492Z,6.300
2023-03-04T12:24:21.588Z,3.900
2023-03-04T12:25:22.236Z,4.699
2023-03-04T12:26:21.877Z,5.400
2023-03-04T12:27:21.631Z,5.199
2023-03-04T12:28:21.537Z,4.900
2023-03-04T12:29:21.235Z,5.400
2023-03-04T12:30:22.414Z,5.099
2023-03-04T12:31:21.475Z,6.599
2023-03-04T12:32:21.146Z,5.699
2023-03-04T12:33:40.908Z,6.900
2023-03-04T12:34:20.962Z,6.599
2023-03-04T12:35:21.350Z,4.599
2023-03-04T12:36:21.537Z,4.199
2023-03-04T12:37:21.283Z,4.800
2023-03-04T12:38:22.106Z,6.300
2023-03-04T12:39:21.782Z,4.599
2023-03-04T12:40:22.186Z,4.5
2023-03-04T12:41:22.156Z,5.800
2023-03-04T12:42:22.599Z,5.599
2023-03-04T12:43:22.197Z,3
2023-03-04T12:44:21.797Z,5
2023-03-04T12:45:22.362Z,5.199
2023-03-04T12:46:22.428Z,4.099
2023-03-04T12:47:21.805Z,4.800
2023-03-04T12:48:22.354Z,5.599
2023-03-04T12:49:21.872Z,3.799
2023-03-04T12:50:22.824Z,5.5
2023-03-04T12:51:22.175Z,3.599
2023-03-04T12:52:21.653Z,5.400
2023-03-04T12:53:22.045Z,4.199
2023-03-04T12:55:22.635Z,4.400
2023-03-04T12:56:21.148Z,4.199
2023-03-04T12:58:22.992Z,3.799
2023-03-04T13:00:23.984Z,3.599
2023-03-04T13:01:22.463Z,4.5
2023-03-04T13:02:22.262Z,4.699
2023-03-04T13:03:22.182Z,5.199
2023-03-04T13:04:22.288Z,5.300
2023-03-04T13:06:22.215Z,4.400
2023-03-04T13:07:21.433Z,3.099
2023-03-04T13:08:21.891Z,5.800
2023-03-04T13:09:21.147Z,6.099
2023-03-04T13:10:22.234Z,4.199
2023-03-04T13:11:21.675Z,3.900
2023-03-04T13:12:22.675Z,3.799
2023-03-04T13:14:21.662Z,3.099
2023-03-04T13:15:22.656Z,3.400
2023-03-04T13:16:21.296Z,4.900
2023-03-04T13:17:21.945Z,3.799
2023-03-04T13:18:21.777Z,4
2023-03-04T13:19:22.033Z,3.900
2023-03-04T13:20:22.232Z,3.5
2023-03-04T13:21:21.843Z,5.900
2023-03-04T13:22:21.979Z,4.5
2023-03-04T13:23:21.102Z,5.5
2023-03-04T13:24:22.211Z,4.300
2023-03-04T13:25:22.121Z,4.900
2023-03-04T13:26:21.635Z,5.800
2023-03-04T13:27:21.669Z,5.099